createdAt,value
2019-02-15T00:00:02.261Z,90.70
2019-02-15T00:01:02.205Z,90.22
2019-02-15T00:02:02.184Z,90.54
2019-02-15T00:03:02.186Z,90.33
2019-02-15T00:04:02.208Z,90.64
2019-02-15T00:05:02.198Z,90.95
2019-02-15T00:06:02.218Z,91.37
2019-02-15T00:07:02.137Z,91.68
2019-02-15T00:08:02.201Z,91.27
2019-02-15T00:09:02.144Z,91.27
2019-02-15T00:10:02.231Z,91.58
2019-02-15T00:11:02.112Z,91.78
2019-02-15T00:12:02.078Z,92.14
2019-02-15T00:13:02.103Z,92.14
2019-02-15T00:14:02.080Z,92.10
2019-02-15T00:15:02.071Z,91.93
2019-02-15T00:16:02.062Z,91.93
2019-02-15T00:17:02.038Z,91.52
2019-02-15T00:18:02.029Z,91.62
2019-02-15T00:19:02.020Z,92.03
2019-02-15T00:20:02.044Z,92.14
2019-02-15T00:21:02.034Z,92.35
2019-02-15T00:22:01.993Z,92.03
2019-02-15T00:23:01.987Z,91.52
2019-02-15T00:24:01.963Z,92.10
2019-02-15T00:25:01.955Z,92.14
2019-02-15T00:26:01.984Z,91.78
2019-02-15T00:27:01.934Z,91.89
2019-02-15T00:28:01.940Z,92.00
2019-02-15T00:29:01.930Z,92.56
2019-02-15T00:30:01.927Z,92.14
2019-02-15T00:31:01.926Z,91.62
2019-02-15T00:32:01.919Z,91.89
2019-02-15T00:33:01.882Z,91.83
2019-02-15T00:34:01.862Z,92.00
2019-02-15T00:35:01.856Z,91.89
2019-02-15T00:36:01.842Z,91.37
2019-02-15T00:37:01.895Z,91.58
2019-02-15T00:38:01.876Z,91.27
2019-02-15T00:39:01.833Z,91.16
2019-02-15T00:40:01.806Z,91.41
2019-02-15T00:41:01.805Z,91.58
2019-02-15T00:42:01.807Z,91.31
2019-02-15T00:43:01.782Z,91.31
2019-02-15T00:44:01.760Z,91.52
2019-02-15T00:45:01.761Z,91.68
2019-02-15T00:46:01.743Z,90.75
2019-02-15T00:47:01.729Z,91.00
2019-02-15T00:48:01.745Z,90.89
2019-02-15T00:49:01.705Z,91.68
2019-02-15T00:50:01.697Z,91.52
2019-02-15T00:51:01.686Z,91.31
2019-02-15T00:52:01.675Z,91.41
2019-02-15T00:53:01.727Z,91.52
2019-02-15T00:54:01.650Z,92.14
2019-02-15T00:55:01.697Z,92.03
2019-02-15T00:56:01.636Z,92.14
2019-02-15T00:57:01.630Z,91.72
2019-02-15T00:58:01.621Z,91.93
2019-02-15T00:59:01.635Z,91.93
2019-02-15T01:00:01.608Z,91.62
2019-02-15T01:01:01.614Z,91.93
2019-02-15T01:02:01.581Z,92.14
2019-02-15T01:03:01.559Z,91.93
2019-02-15T01:04:01.691Z,91.93
2019-02-15T01:05:01.546Z,91.93
2019-02-15T01:06:01.534Z,91.62
2019-02-15T01:07:01.532Z,91.52
2019-02-15T01:08:01.509Z,91.52
2019-02-15T01:09:01.686Z,91.20
2019-02-15T01:10:01.502Z,91.72
2019-02-15T01:11:01.492Z,91.72
2019-02-15T01:12:01.493Z,91.52
2019-02-15T01:13:01.455Z,91.35
2019-02-15T01:14:01.466Z,91.56
2019-02-15T01:15:01.461Z,91.25
2019-02-15T01:16:01.423Z,91.56
2019-02-15T01:17:01.448Z,91.25
2019-02-15T01:18:01.406Z,91.46
2019-02-15T01:19:01.395Z,91.35
2019-02-15T01:20:01.421Z,91.25
2019-02-15T01:21:01.377Z,91.97
2019-02-15T01:22:01.375Z,91.97
2019-02-15T01:23:01.368Z,91.87
2019-02-15T01:24:01.340Z,91.66
2019-02-15T01:25:01.373Z,92.08
2019-02-15T01:26:01.367Z,92.08
2019-02-15T01:27:01.337Z,92.18
2019-02-15T01:28:01.329Z,92.08
2019-02-15T01:29:01.293Z,91.87
2019-02-15T01:30:01.289Z,91.77
2019-02-15T01:31:01.277Z,91.56
2019-02-15T01:32:01.263Z,91.77
2019-02-15T01:33:01.252Z,91.66
2019-02-15T01:34:01.246Z,91.56
2019-02-15T01:35:01.220Z,91.66
2019-02-15T01:36:01.224Z,91.56
2019-02-15T01:37:01.223Z,91.77
2019-02-15T01:38:01.256Z,91.77
2019-02-15T01:39:01.197Z,91.66
2019-02-15T01:40:01.184Z,91.56
2019-02-15T01:41:01.215Z,91.66
2019-02-15T01:42:01.199Z,91.87
2019-02-15T01:43:01.146Z,91.35
2019-02-15T01:44:01.152Z,91.91
2019-02-15T01:45:01.140Z,91.66
2019-02-15T01:46:01.125Z,91.39
2019-02-15T01:47:01.150Z,91.39
2019-02-15T01:48:01.091Z,91.81
2019-02-15T01:49:01.105Z,91.50
2019-02-15T01:50:01.070Z,91.71
2019-02-15T01:51:01.094Z,91.56
2019-02-15T01:52:01.088Z,91.60
2019-02-15T01:53:01.118Z,91.29
2019-02-15T01:54:01.077Z,91.60
2019-02-15T01:55:01.049Z,91.60
2019-02-15T01:56:01.016Z,91.50
2019-02-15T01:57:01.027Z,91.50
2019-02-15T01:58:01.012Z,91.50
2019-02-15T01:59:01.023Z,91.87
2019-02-15T02:00:00.967Z,91.91
2019-02-15T02:01:00.960Z,91.91
2019-02-15T02:02:00.956Z,92.22
2019-02-15T02:03:00.958Z,92.12
2019-02-15T02:04:00.959Z,92.02
2019-02-15T02:05:00.988Z,92.12
2019-02-15T02:06:00.933Z,92.02
2019-02-15T02:07:00.902Z,91.91
2019-02-15T02:08:00.914Z,91.81
2019-02-15T02:09:00.887Z,91.81
2019-02-15T02:10:00.879Z,92.02
2019-02-15T02:11:00.885Z,92.02
2019-02-15T02:12:00.856Z,91.91
2019-02-15T02:13:00.847Z,91.71
2019-02-15T02:14:00.871Z,92.02
2019-02-15T02:15:09.573Z,91.97
2019-02-15T02:16:10.100Z,91.50
2019-02-15T02:17:00.806Z,91.39
2019-02-15T02:18:00.772Z,91.71
2019-02-15T02:19:00.767Z,91.29
2019-02-15T02:20:00.761Z,91.08
2019-02-15T02:21:00.754Z,91.71
2019-02-15T02:22:09.647Z,91.91
2019-02-15T02:23:10.184Z,91.08
2019-02-15T02:24:10.212Z,90.97
2019-02-15T02:25:00.714Z,91.08
2019-02-15T02:26:00.689Z,90.87
2019-02-15T02:27:00.699Z,90.45
2019-02-15T02:28:00.696Z,90.77
2019-02-15T02:29:00.665Z,90.45
2019-02-15T02:30:00.668Z,91.08
2019-02-15T02:31:00.678Z,90.66
2019-02-15T02:32:00.654Z,90.87
2019-02-15T02:33:00.641Z,90.41
2019-02-15T02:34:00.622Z,90.14
2019-02-15T02:35:00.598Z,90.31
2019-02-15T02:36:00.635Z,90.31
2019-02-15T02:37:00.588Z,90.52
2019-02-15T02:38:00.577Z,90.00
2019-02-15T02:39:00.558Z,89.89
2019-02-15T02:40:00.546Z,90.10
2019-02-15T02:41:00.539Z,89.64
2019-02-15T02:42:00.549Z,88.70
2019-02-15T02:43:00.531Z,88.60
2019-02-15T02:44:00.543Z,88.60
2019-02-15T02:45:00.507Z,88.85
2019-02-15T02:46:00.492Z,88.64
2019-02-15T02:47:00.480Z,88.85
2019-02-15T02:48:00.500Z,88.85
2019-02-15T02:49:00.468Z,89.06
2019-02-15T02:50:00.469Z,89.16
2019-02-15T02:51:00.447Z,89.26
2019-02-15T02:52:00.435Z,89.10
2019-02-15T02:53:00.431Z,89.72
2019-02-15T02:54:00.431Z,89.89
2019-02-15T02:55:00.479Z,89.68
2019-02-15T02:56:00.406Z,89.78
2019-02-15T02:57:00.388Z,89.78
2019-02-15T02:58:00.425Z,89.93
2019-02-15T02:59:00.359Z,89.93
2019-02-15T03:00:00.527Z,89.93
2019-02-15T03:01:00.347Z,90.14
2019-02-15T03:02:00.332Z,90.25
2019-02-15T03:03:00.324Z,90.45
2019-02-15T03:04:00.329Z,89.93
2019-02-15T03:05:00.481Z,90.03
2019-02-15T03:06:00.295Z,90.03
2019-02-15T03:07:00.287Z,89.93
2019-02-15T03:08:00.288Z,90.14
2019-02-15T03:09:00.307Z,90.45
2019-02-15T03:10:00.313Z,90.25
2019-02-15T03:11:00.242Z,90.25
2019-02-15T03:12:00.235Z,90.03
2019-02-15T03:13:00.207Z,90.03
2019-02-15T03:14:10.708Z,90.03
2019-02-15T03:15:01.218Z,90.60
2019-02-15T03:16:00.182Z,90.91
2019-02-15T03:17:00.172Z,90.91
2019-02-15T03:18:00.207Z,90.60
2019-02-15T03:19:00.171Z,90.60
2019-02-15T03:20:00.321Z,90.60
2019-02-15T03:21:00.142Z,90.70
2019-02-15T03:22:00.137Z,90.91
2019-02-15T03:23:00.132Z,90.91
2019-02-15T03:24:00.140Z,91.43
2019-02-15T03:25:00.287Z,91.75
2019-02-15T03:26:00.093Z,91.54
2019-02-15T03:27:00.093Z,91.02
2019-02-15T03:28:00.094Z,90.70
2019-02-15T03:29:00.080Z,90.91
2019-02-15T03:30:00.044Z,91.96
2019-02-15T03:31:00.056Z,91.75
2019-02-15T03:32:00.044Z,91.43
2019-02-15T03:33:00.034Z,91.33
2019-02-15T03:33:59.996Z,91.43
2019-02-15T03:34:59.995Z,91.43
2019-02-15T03:35:59.998Z,91.47
2019-02-15T03:37:00.005Z,91.58
2019-02-15T03:37:59.980Z,91.79
2019-02-15T03:38:59.947Z,91.43
2019-02-15T03:39:59.941Z,91.43
2019-02-15T03:40:59.966Z,91.37
2019-02-15T03:41:59.926Z,91.58
2019-02-15T03:42:59.912Z,91.47
2019-02-15T03:43:59.912Z,91.58
2019-02-15T03:44:59.891Z,91.89
2019-02-15T03:45:59.877Z,92.10
2019-02-15T03:46:59.861Z,91.69
2019-02-15T03:47:59.861Z,91.69
2019-02-15T03:48:59.860Z,92.00
2019-02-15T03:49:59.853Z,92.21
2019-02-15T03:50:59.837Z,92.21
2019-02-15T03:51:59.828Z,92.31
2019-02-15T03:52:59.832Z,92.31
2019-02-15T03:53:59.799Z,92.16
2019-02-15T03:54:59.800Z,91.79
2019-02-15T03:55:59.797Z,91.75
2019-02-15T03:56:59.765Z,91.85
2019-02-15T03:57:59.765Z,91.54
2019-02-15T03:58:59.759Z,91.43
2019-02-15T03:59:59.739Z,91.75
2019-02-15T04:00:59.726Z,91.85
2019-02-15T04:01:59.745Z,91.12
2019-02-15T04:02:59.728Z,91.64
2019-02-15T04:03:59.705Z,91.43
2019-02-15T04:04:59.689Z,91.75
2019-02-15T04:05:59.691Z,91.75
2019-02-15T04:06:59.672Z,91.54
2019-02-15T04:07:59.672Z,91.85
2019-02-15T04:08:59.641Z,91.12
2019-02-15T04:09:59.626Z,90.81
2019-02-15T04:10:59.642Z,91.16
2019-02-15T04:11:59.617Z,91.12
2019-02-15T04:12:59.604Z,91.43
2019-02-15T04:13:59.612Z,91.85
2019-02-15T04:14:59.587Z,91.85
2019-02-15T04:15:59.693Z,91.85
2019-02-15T04:16:59.551Z,91.33
2019-02-15T04:17:59.568Z,90.91
2019-02-15T04:18:59.553Z,90.81
2019-02-15T04:19:59.534Z,90.81
2019-02-15T04:20:59.529Z,90.60
2019-02-15T04:21:59.518Z,90.64
2019-02-15T04:22:59.514Z,90.75
2019-02-15T04:23:59.510Z,90.53
2019-02-15T04:24:59.481Z,90.85
2019-02-15T04:25:59.468Z,91.79
2019-02-15T04:26:59.468Z,91.69
2019-02-15T04:27:59.476Z,91.79
2019-02-15T04:28:59.478Z,91.79
2019-02-15T04:29:59.446Z,91.27
2019-02-15T04:30:59.422Z,91.58
2019-02-15T04:31:59.417Z,91.89
2019-02-15T04:32:59.405Z,91.62
2019-02-15T04:33:59.441Z,91.72
2019-02-15T04:34:59.376Z,91.62
2019-02-15T04:35:59.403Z,91.52
2019-02-15T04:36:59.375Z,91.62
2019-02-15T04:37:59.366Z,91.62
2019-02-15T04:38:59.342Z,92.04
2019-02-15T04:39:59.376Z,92.04
2019-02-15T04:40:59.310Z,92.04
2019-02-15T04:41:59.307Z,92.46
2019-02-15T04:42:59.297Z,92.56
2019-02-15T04:43:59.293Z,92.25
2019-02-15T04:44:59.278Z,92.14
2019-02-15T04:45:59.289Z,92.25
2019-02-15T04:46:59.274Z,92.46
2019-02-15T04:47:59.281Z,92.35
2019-02-15T04:48:59.269Z,92.04
2019-02-15T04:49:59.859Z,92.29
2019-02-15T04:51:00.894Z,92.29
2019-02-15T04:51:59.234Z,92.25
2019-02-15T04:52:59.206Z,92.25
2019-02-15T04:53:59.218Z,92.50
2019-02-15T04:54:59.210Z,92.08
2019-02-15T04:55:59.217Z,92.46
2019-02-15T04:56:59.176Z,92.46
2019-02-15T04:57:59.171Z,92.29
2019-02-15T04:58:59.176Z,92.14
2019-02-15T04:59:59.151Z,92.50
2019-02-15T05:00:59.157Z,92.56
2019-02-15T05:01:59.133Z,92.88
2019-02-15T05:02:59.102Z,92.88
2019-02-15T05:03:59.089Z,92.35
2019-02-15T05:04:59.118Z,92.56
2019-02-15T05:05:59.097Z,92.98
2019-02-15T05:06:59.118Z,91.94
2019-02-15T05:07:59.102Z,91.94
2019-02-15T05:08:59.051Z,91.83
2019-02-15T05:09:59.034Z,91.20
2019-02-15T05:10:59.014Z,91.00
2019-02-15T05:11:59.029Z,90.47
2019-02-15T05:12:59.037Z,91.62
2019-02-15T05:13:58.990Z,91.20
2019-02-15T05:14:59.001Z,91.20
2019-02-15T05:15:58.974Z,90.68
2019-02-15T05:16:59.051Z,91.20
2019-02-15T05:17:58.960Z,91.94
2019-02-15T05:18:58.943Z,91.94
2019-02-15T05:19:58.939Z,91.94
2019-02-15T05:20:58.975Z,91.94
2019-02-15T05:21:58.922Z,91.66
2019-02-15T05:22:58.921Z,92.19
2019-02-15T05:23:58.897Z,92.19
2019-02-15T05:24:58.895Z,92.19
2019-02-15T05:25:58.904Z,92.19
2019-02-15T05:26:58.856Z,92.08
2019-02-15T05:27:58.879Z,92.29
2019-02-15T05:28:58.846Z,92.50
2019-02-15T05:29:58.825Z,92.50
2019-02-15T05:30:58.816Z,92.92
2019-02-15T05:31:58.835Z,92.92
2019-02-15T05:32:58.835Z,92.65
2019-02-15T05:33:58.779Z,92.40
2019-02-15T05:34:58.804Z,92.96
2019-02-15T05:35:58.819Z,93.17
2019-02-15T05:37:06.342Z,92.75
2019-02-15T05:37:58.737Z,93.17
2019-02-15T05:38:58.741Z,93.17
2019-02-15T05:39:58.744Z,92.85
2019-02-15T05:40:58.877Z,93.17
2019-02-15T05:41:58.794Z,93.27
2019-02-15T05:42:58.710Z,93.32
2019-02-15T05:43:58.708Z,93.70
2019-02-15T05:45:03.529Z,93.74
2019-02-15T05:45:59.672Z,94.15
2019-02-15T05:46:58.663Z,94.26
2019-02-15T05:47:58.696Z,93.95
2019-02-15T05:48:58.638Z,93.95
2019-02-15T05:49:58.670Z,93.95
2019-02-15T05:50:58.720Z,94.36
2019-02-15T05:51:58.641Z,94.26
2019-02-15T05:52:58.643Z,94.36
2019-02-15T05:53:58.718Z,94.15
2019-02-15T05:54:58.599Z,94.46
2019-02-15T05:55:58.649Z,94.57
2019-02-15T05:56:58.571Z,94.89
2019-02-15T05:57:58.575Z,94.89
2019-02-15T05:58:58.584Z,94.57
2019-02-15T05:59:58.553Z,94.57
2019-02-15T06:00:58.627Z,94.26
2019-02-15T06:01:58.630Z,94.36
2019-02-15T06:02:58.553Z,94.89
2019-02-15T06:03:58.735Z,94.72
2019-02-15T06:04:58.659Z,94.62
2019-02-15T06:05:58.576Z,94.46
2019-02-15T06:06:58.481Z,94.89
2019-02-15T06:07:58.590Z,94.62
2019-02-15T06:08:58.499Z,94.68
2019-02-15T06:09:58.486Z,94.46
2019-02-15T06:11:06.433Z,94.68
2019-02-15T06:11:59.559Z,94.36
2019-02-15T06:12:58.477Z,94.72
2019-02-15T06:13:58.428Z,95.25
2019-02-15T06:14:58.443Z,95.14
2019-02-15T06:15:58.386Z,95.09
2019-02-15T06:16:58.367Z,95.62
2019-02-15T06:17:58.533Z,95.45
2019-02-15T06:18:58.391Z,95.31
2019-02-15T06:19:58.404Z,95.51
2019-02-15T06:20:58.364Z,95.31
2019-02-15T06:21:58.418Z,95.45
2019-02-15T06:22:58.328Z,95.62
2019-02-15T06:23:58.307Z,95.62
2019-02-15T06:24:58.291Z,95.20
2019-02-15T06:25:58.444Z,95.41
2019-02-15T06:26:58.258Z,95.09
2019-02-15T06:27:58.316Z,95.20
2019-02-15T06:28:58.411Z,95.20
2019-02-15T06:29:58.810Z,95.09
2019-02-15T06:30:58.279Z,94.99
2019-02-15T06:31:58.272Z,94.36
2019-02-15T06:32:59.719Z,94.32
2019-02-15T06:33:58.280Z,94.36
2019-02-15T06:35:00.902Z,95.20
2019-02-15T06:35:58.212Z,95.09
2019-02-15T06:36:58.143Z,94.89
2019-02-15T06:37:58.306Z,94.78
2019-02-15T06:38:58.300Z,94.68
2019-02-15T06:39:58.185Z,94.36
2019-02-15T06:40:58.306Z,94.68
2019-02-15T06:41:58.181Z,94.57
2019-02-15T06:42:58.711Z,94.57
2019-02-15T06:43:58.092Z,94.68
2019-02-15T06:44:58.116Z,94.74
2019-02-15T06:45:59.041Z,94.53
2019-02-15T06:46:58.716Z,94.64
2019-02-15T06:48:01.805Z,94.11
2019-02-15T06:49:02.263Z,94.21
2019-02-15T06:50:02.473Z,94.21
2019-02-15T06:50:58.008Z,93.70
2019-02-15T06:51:58.079Z,94.11
2019-02-15T06:52:58.042Z,94.74
2019-02-15T06:53:58.034Z,94.74
2019-02-15T06:54:58.054Z,94.38
2019-02-15T06:55:57.976Z,94.49
2019-02-15T06:57:01.368Z,94.27
2019-02-15T06:58:00.707Z,94.17
2019-02-15T06:59:00.822Z,94.17
2019-02-15T06:59:59.302Z,93.96
2019-02-15T07:00:57.929Z,93.29
2019-02-15T07:01:57.888Z,92.82
2019-02-15T07:02:57.902Z,92.77
2019-02-15T07:03:57.921Z,92.35
2019-02-15T07:04:57.869Z,92.66
2019-02-15T07:05:57.884Z,92.98
2019-02-15T07:06:57.894Z,92.35
2019-02-15T07:07:57.938Z,92.14
2019-02-15T07:08:57.911Z,91.94
2019-02-15T07:09:57.832Z,91.79
2019-02-15T07:10:57.891Z,91.47
2019-02-15T07:11:57.884Z,91.89
2019-02-15T07:12:58.707Z,90.95
2019-02-15T07:13:57.850Z,90.95
2019-02-15T07:14:57.843Z,90.50
2019-02-15T07:15:57.877Z,90.60
2019-02-15T07:16:57.835Z,90.91
2019-02-15T07:17:57.917Z,90.81
2019-02-15T07:18:57.778Z,90.60
2019-02-15T07:19:57.721Z,90.28
2019-02-15T07:20:57.763Z,90.03
2019-02-15T07:21:57.683Z,89.93
2019-02-15T07:22:57.691Z,90.14
2019-02-15T07:23:57.683Z,90.14
2019-02-15T07:24:57.709Z,90.35
2019-02-15T07:25:57.687Z,89.41
2019-02-15T07:26:57.624Z,89.62
2019-02-15T07:27:57.647Z,89.62
2019-02-15T07:28:57.611Z,89.10
2019-02-15T07:29:58.714Z,88.75
2019-02-15T07:30:57.650Z,88.32
2019-02-15T07:31:57.579Z,87.91
2019-02-15T07:32:57.611Z,87.91
2019-02-15T07:33:57.555Z,87.18
2019-02-15T07:34:57.607Z,87.14
2019-02-15T07:35:57.569Z,87.14
2019-02-15T07:36:57.538Z,87.35
2019-02-15T07:37:57.584Z,87.14
2019-02-15T07:38:57.808Z,86.72
2019-02-15T07:39:57.530Z,86.83
2019-02-15T07:40:57.497Z,87.04
2019-02-15T07:41:57.479Z,87.24
2019-02-15T07:42:57.591Z,86.58
2019-02-15T07:43:57.475Z,86.37
2019-02-15T07:44:57.471Z,86.37
2019-02-15T07:45:57.450Z,85.85
2019-02-15T07:46:57.525Z,86.06
2019-02-15T07:47:58.625Z,85.91
2019-02-15T07:48:57.446Z,84.87
2019-02-15T07:49:57.453Z,85.50
2019-02-15T07:50:57.881Z,84.94
2019-02-15T07:51:57.375Z,84.52
2019-02-15T07:52:57.391Z,83.90
2019-02-15T07:53:57.432Z,84.11
2019-02-15T07:54:57.714Z,83.37
2019-02-15T07:55:57.371Z,83.34
2019-02-15T07:56:57.379Z,82.82
2019-02-15T07:57:58.214Z,82.71
2019-02-15T07:58:57.307Z,81.98
2019-02-15T07:59:57.316Z,81.74
2019-02-15T08:00:57.338Z,81.32
2019-02-15T08:02:01.781Z,81.49
2019-02-15T08:02:57.297Z,81.12
2019-02-15T08:03:57.346Z,80.98
2019-02-15T08:04:57.349Z,80.66
2019-02-15T08:05:57.311Z,80.46
2019-02-15T08:06:57.320Z,80.32
2019-02-15T08:07:57.240Z,80.32
2019-02-15T08:08:57.193Z,79.90
2019-02-15T08:09:57.261Z,79.27
2019-02-15T08:10:57.280Z,79.24
2019-02-15T08:11:57.258Z,79.55
2019-02-15T08:12:57.252Z,78.30
2019-02-15T08:13:57.277Z,78.30
2019-02-15T08:14:57.183Z,78.16
2019-02-15T08:15:57.118Z,78.27
2019-02-15T08:16:57.223Z,77.75
2019-02-15T08:17:57.716Z,77.85
2019-02-15T08:18:57.360Z,77.64
2019-02-15T08:19:57.097Z,77.40
2019-02-15T08:20:57.072Z,76.57
2019-02-15T08:21:57.238Z,76.47
2019-02-15T08:22:57.234Z,76.78
2019-02-15T08:23:57.140Z,76.23
2019-02-15T08:24:57.090Z,75.60
2019-02-15T08:25:57.036Z,75.29
2019-02-15T08:26:57.009Z,74.95
2019-02-15T08:27:57.012Z,74.95
2019-02-15T08:28:57.015Z,74.53
2019-02-15T08:29:57.011Z,74.11
2019-02-15T08:30:56.987Z,73.77
2019-02-15T08:31:56.996Z,73.67
2019-02-15T08:32:57.013Z,73.77
2019-02-15T08:33:56.991Z,73.74
2019-02-15T08:34:56.986Z,72.71
2019-02-15T08:35:56.972Z,72.08
2019-02-15T08:36:56.959Z,72.25
2019-02-15T08:37:56.954Z,72.05
2019-02-15T08:38:56.881Z,71.73
2019-02-15T08:39:56.887Z,71.43
2019-02-15T08:40:56.878Z,70.60
2019-02-15T08:42:01.359Z,70.77
2019-02-15T08:42:57.881Z,70.57
2019-02-15T08:43:57.498Z,70.05
2019-02-15T08:44:56.867Z,70.15
2019-02-15T08:46:01.600Z,70.12
2019-02-15T08:46:57.861Z,70.12
2019-02-15T08:47:56.794Z,69.92
2019-02-15T08:48:56.821Z,69.81
2019-02-15T08:49:56.908Z,69.67
2019-02-15T08:50:56.804Z,68.46
2019-02-15T08:51:56.940Z,68.54
2019-02-15T08:52:56.836Z,68.82
2019-02-15T08:53:56.772Z,68.51
2019-02-15T08:54:56.775Z,67.75
2019-02-15T08:55:56.716Z,66.96
2019-02-15T08:56:56.706Z,66.10
2019-02-15T08:57:56.749Z,66.61
2019-02-15T08:58:56.832Z,67.03
2019-02-15T08:59:56.706Z,66.93
2019-02-15T09:00:56.723Z,66.69
2019-02-15T09:01:56.660Z,66.38
2019-02-15T09:02:56.621Z,66.17
2019-02-15T09:03:56.655Z,66.58
2019-02-15T09:04:56.642Z,66.48
2019-02-15T09:05:56.629Z,65.31
2019-02-15T09:06:56.622Z,63.97
2019-02-15T09:07:56.617Z,64.90
2019-02-15T09:08:56.586Z,65.42
2019-02-15T09:09:56.599Z,63.35
2019-02-15T09:10:56.602Z,63.25
2019-02-15T09:11:56.609Z,64.15
2019-02-15T09:12:56.584Z,64.22
2019-02-15T09:13:56.525Z,64.04
2019-02-15T09:14:56.587Z,63.09
2019-02-15T09:15:56.524Z,62.47
2019-02-15T09:16:56.545Z,63.09
2019-02-15T09:17:56.495Z,62.65
2019-02-15T09:18:56.544Z,62.13
2019-02-15T09:19:56.465Z,61.72
2019-02-15T09:20:56.462Z,62.03
2019-02-15T09:21:56.470Z,61.93
2019-02-15T09:22:56.448Z,61.31
2019-02-15T09:23:56.427Z,61.31
2019-02-15T09:24:56.445Z,60.28
2019-02-15T09:25:56.401Z,60.46
2019-02-15T09:26:56.409Z,60.56
2019-02-15T09:27:56.368Z,60.56
2019-02-15T09:28:57.226Z,60.53
2019-02-15T09:29:56.391Z,60.43
2019-02-15T09:30:56.373Z,60.53
2019-02-15T09:31:56.328Z,60.43
2019-02-15T09:32:56.378Z,60.53
2019-02-15T09:33:56.333Z,59.70
2019-02-15T09:34:56.309Z,58.54
2019-02-15T09:35:56.328Z,58.54
2019-02-15T09:36:56.256Z,59.06
2019-02-15T09:37:56.333Z,58.54
2019-02-15T09:38:56.257Z,58.45
2019-02-15T09:39:56.338Z,58.86
2019-02-15T09:40:56.260Z,58.24
2019-02-15T09:41:56.252Z,57.90
2019-02-15T09:42:56.236Z,59.03
2019-02-15T09:43:56.245Z,58.11
2019-02-15T09:44:56.394Z,58.21
2019-02-15T09:45:56.228Z,57.98
2019-02-15T09:46:56.201Z,57.98
2019-02-15T09:47:56.264Z,57.46
2019-02-15T09:48:56.178Z,57.46
2019-02-15T09:49:56.210Z,57.85
2019-02-15T09:50:56.157Z,57.85
2019-02-15T09:51:56.142Z,56.72
2019-02-15T09:52:56.127Z,56.82
2019-02-15T09:53:56.169Z,56.38
2019-02-15T09:54:56.148Z,56.18
2019-02-15T09:55:56.127Z,55.87
2019-02-15T09:56:56.142Z,55.05
2019-02-15T09:57:56.063Z,54.74
2019-02-15T09:58:56.080Z,54.74
2019-02-15T09:59:56.084Z,55.26
2019-02-15T10:00:56.095Z,54.72
2019-02-15T10:01:56.037Z,54.72
2019-02-15T10:02:56.064Z,54.92
2019-02-15T10:03:56.045Z,54.82
2019-02-15T10:04:56.025Z,54.92
2019-02-15T10:05:55.999Z,54.41
2019-02-15T10:06:56.732Z,54.69
2019-02-15T10:07:55.981Z,54.49
2019-02-15T10:08:55.969Z,54.18
2019-02-15T10:09:55.924Z,53.77
2019-02-15T10:10:55.987Z,53.36
2019-02-15T10:11:55.926Z,53.64
2019-02-15T10:12:55.930Z,53.66
2019-02-15T10:13:55.909Z,53.46
2019-02-15T10:14:55.892Z,53.44
2019-02-15T10:15:55.913Z,53.33
2019-02-15T10:16:55.908Z,53.61
2019-02-15T10:17:55.846Z,53.12
2019-02-15T10:18:55.846Z,53.41
2019-02-15T10:19:55.824Z,53.51
2019-02-15T10:20:55.858Z,53.10
2019-02-15T10:21:55.810Z,53.20
2019-02-15T10:22:55.805Z,52.97
2019-02-15T10:23:55.792Z,53.08
2019-02-15T10:24:55.787Z,53.72
2019-02-15T10:25:55.767Z,53.39
2019-02-15T10:26:55.836Z,53.18
2019-02-15T10:27:55.762Z,52.47
2019-02-15T10:28:55.747Z,51.23
2019-02-15T10:29:55.769Z,51.54
2019-02-15T10:30:55.707Z,51.72
2019-02-15T10:31:55.725Z,52.87
2019-02-15T10:32:55.733Z,51.64
2019-02-15T10:33:55.695Z,51.95
2019-02-15T10:34:55.698Z,51.51
2019-02-15T10:35:55.745Z,52.31
2019-02-15T10:36:55.674Z,52.44
2019-02-15T10:37:55.719Z,50.98
2019-02-15T10:38:55.661Z,50.67
2019-02-15T10:39:55.642Z,50.78
2019-02-15T10:40:55.595Z,51.39
2019-02-15T10:41:55.628Z,50.78
2019-02-15T10:42:55.599Z,50.78
2019-02-15T10:43:55.604Z,50.45
2019-02-15T10:44:55.561Z,50.14
2019-02-15T10:45:55.551Z,50.75
2019-02-15T10:46:55.533Z,50.34
2019-02-15T10:47:55.523Z,49.83
2019-02-15T10:48:55.547Z,49.09
2019-02-15T10:49:55.526Z,49.40
2019-02-15T10:50:55.501Z,49.09
2019-02-15T10:51:55.490Z,48.79
2019-02-15T10:52:55.476Z,49.40
2019-02-15T10:53:55.473Z,48.99
2019-02-15T10:54:55.502Z,49.09
2019-02-15T10:55:55.436Z,49.71
2019-02-15T10:56:55.457Z,49.09
2019-02-15T10:57:55.444Z,49.48
2019-02-15T10:58:55.407Z,48.99
2019-02-15T10:59:55.451Z,48.76
2019-02-15T11:00:55.458Z,48.56
2019-02-15T11:01:55.421Z,47.64
2019-02-15T11:02:55.374Z,48.35
2019-02-15T11:03:55.349Z,47.74
2019-02-15T11:04:55.381Z,47.85
2019-02-15T11:05:55.345Z,48.35
2019-02-15T11:06:55.341Z,47.64
2019-02-15T11:07:55.314Z,47.52
2019-02-15T11:08:55.355Z,47.13
2019-02-15T11:09:55.349Z,47.03
2019-02-15T11:10:55.318Z,46.92
2019-02-15T11:11:55.317Z,46.92
2019-02-15T11:12:55.331Z,46.80
2019-02-15T11:13:55.245Z,46.70
2019-02-15T11:14:55.246Z,45.78
2019-02-15T11:15:55.293Z,46.90
2019-02-15T11:16:55.207Z,46.72
2019-02-15T11:17:55.204Z,46.49
2019-02-15T11:18:55.195Z,47.33
2019-02-15T11:19:55.220Z,46.49
2019-02-15T11:20:55.191Z,46.39
2019-02-15T11:21:55.245Z,46.19
2019-02-15T11:22:55.170Z,46.49
2019-02-15T11:23:55.149Z,45.37
2019-02-15T11:24:55.155Z,45.67
2019-02-15T11:25:55.752Z,45.96
2019-02-15T11:26:55.103Z,45.35
2019-02-15T11:27:55.131Z,44.63
2019-02-15T11:28:55.086Z,44.24
2019-02-15T11:29:55.084Z,45.04
2019-02-15T11:30:55.132Z,43.71
2019-02-15T11:31:55.085Z,44.84
2019-02-15T11:32:55.059Z,44.32
2019-02-15T11:33:55.073Z,43.71
2019-02-15T11:34:55.018Z,44.43
2019-02-15T11:35:55.086Z,43.00
2019-02-15T11:37:03.982Z,43.61
2019-02-15T11:37:55.042Z,43.91
2019-02-15T11:38:55.018Z,43.38
2019-02-15T11:39:55.105Z,44.20
2019-02-15T11:40:54.997Z,43.59
2019-02-15T11:41:55.140Z,43.41
2019-02-15T11:42:55.086Z,42.69
2019-02-15T11:43:55.131Z,43.79
2019-02-15T11:44:54.962Z,43.30
2019-02-15T11:45:54.990Z,42.47
2019-02-15T11:46:56.857Z,41.55
2019-02-15T11:47:55.902Z,41.75
2019-02-15T11:48:55.799Z,41.35
2019-02-15T11:49:56.785Z,41.24
2019-02-15T11:50:55.942Z,41.63
2019-02-15T11:51:54.872Z,40.94
2019-02-15T11:52:56.291Z,41.22
2019-02-15T11:53:55.018Z,41.33
2019-02-15T11:54:54.925Z,40.92
2019-02-15T11:55:54.888Z,41.53
2019-02-15T11:56:55.423Z,40.61
2019-02-15T11:57:55.786Z,40.61
2019-02-15T11:58:56.690Z,40.20
2019-02-15T11:59:55.462Z,40.30
2019-02-15T12:00:54.782Z,39.79
2019-02-15T12:01:55.519Z,40.10
2019-02-15T12:02:55.432Z,39.69
2019-02-15T12:03:54.961Z,39.28
2019-02-15T12:04:54.828Z,39.90
2019-02-15T12:05:55.288Z,39.28
2019-02-15T12:06:54.725Z,39.59
2019-02-15T12:07:54.720Z,39.79
2019-02-15T12:08:54.660Z,40.10
2019-02-15T12:09:54.680Z,39.79
2019-02-15T12:10:54.636Z,39.90
2019-02-15T12:11:54.636Z,39.59
2019-02-15T12:12:54.625Z,39.17
2019-02-15T12:13:54.605Z,40.10
2019-02-15T12:14:54.624Z,39.17
2019-02-15T12:15:54.580Z,38.76
2019-02-15T12:16:54.613Z,38.55
2019-02-15T12:17:54.557Z,38.65
2019-02-15T12:18:54.759Z,38.96
2019-02-15T12:19:54.658Z,38.65
2019-02-15T12:20:54.552Z,37.94
2019-02-15T12:21:54.549Z,38.23
2019-02-15T12:22:54.544Z,37.43
2019-02-15T12:23:54.659Z,38.02
2019-02-15T12:24:54.526Z,39.04
2019-02-15T12:25:54.540Z,39.25
2019-02-15T12:26:54.594Z,39.04
2019-02-15T12:27:55.589Z,40.17
2019-02-15T12:28:56.295Z,38.94
2019-02-15T12:29:55.387Z,39.15
2019-02-15T12:30:57.409Z,39.04
2019-02-15T12:31:54.480Z,38.53
2019-02-15T12:32:54.427Z,38.23
2019-02-15T12:33:54.400Z,38.74
2019-02-15T12:34:54.392Z,37.62
2019-02-15T12:35:54.397Z,38.33
2019-02-15T12:36:54.391Z,38.33
2019-02-15T12:37:54.390Z,38.72
2019-02-15T12:38:54.341Z,37.49
2019-02-15T12:39:54.448Z,37.82
2019-02-15T12:40:54.345Z,37.10
2019-02-15T12:41:54.348Z,37.92
2019-02-15T12:42:54.295Z,37.72
2019-02-15T12:43:54.330Z,37.31
2019-02-15T12:44:54.276Z,37.60
2019-02-15T12:45:54.299Z,37.90
2019-02-15T12:46:54.286Z,37.70
2019-02-15T12:47:54.261Z,37.60
2019-02-15T12:48:54.226Z,37.09
2019-02-15T12:49:55.727Z,37.90
2019-02-15T12:50:54.264Z,37.60
2019-02-15T12:51:54.249Z,36.79